Flight Track Log - Related Links

Times and Time Zones

All times are in EDT time to prevent confusion due to time zone crossing. See the SWA1834 flight status page for this flight to view local times or setup timezone preferences in your user account.

Time Position Orientation Groundspeed Altitude Reporting Facility
EDT Latitude Longitude Course Direction KTS MPH feet Rate Location/Type
Sun 08:38:13 AM 39.8833 -75.2000 72° East 158 182 1,000  Level Philadelphia TRACON
Sun 08:39:19 AM 39.9000 -75.1333 72° East 231 266 3,000 1,905 Climbing Philadelphia TRACON
Sun 08:40:19 AM 39.9500 -75.0500 52° Northeast 289 333 5,000 2,368 Climbing Philadelphia TRACON
Sun 08:41:13 AM 40.0000 -75.1000 323° Northwest 296 341 7,500 2,632 Climbing Philadelphia TRACON
Sun 08:42:13 AM 40.0000 -75.1833 270° West 274 315 10,000 1,190 Climbing Philadelphia TRACON
Sun 08:43:19 AM 39.9833 -75.3000 259° West 272 313 10,000  Level Philadelphia TRACON
Sun 08:44:41 AM 39.9583 -75.4425 257° West 303 349 10,000 557 Level New Center
Sun 08:45:39 AM 39.9431 -75.5633 261° West 331 381 11,300 2,319 Climbing New Center
Sun 08:46:40 AM 39.9442 -75.6906 271° West 343 395 14,600 2,902 Climbing New Center
Sun 08:47:41 AM 39.9428 -75.8231 269° West 360 414 17,200 2,579 Climbing New Center
Sun 08:48:41 AM 39.9431 -75.9586 270° West 370 426 19,800 2,380 Climbing New Center
Sun 08:49:42 AM 39.9408 -76.1047 269° West 391 450 22,000 2,100 Climbing New Center
Sun 08:50:41 AM 39.9347 -76.2342 267° West 397 457 24,000 2,067 Climbing New Center
Sun 08:51:41 AM 39.9339 -76.3886 270° West 416 479 26,100 2,034 Climbing New Center
Sun 08:52:39 AM 39.9306 -76.5425 268° West 422 486 28,000 2,136 Climbing New Center
Sun 08:53:39 AM 39.9297 -76.6886 270° West 422 486 30,300 1,884 Climbing New Center
Sun 08:54:40 AM 39.9344 -76.8408 272° West 416 479 31,800 1,289 Climbing New Center
Sun 08:55:40 AM 39.9411 -76.9903 273° West 416 479 32,900 1,525 Climbing New Center
Sun 08:56:42 AM 39.9458 -77.1397 272° West 421 484 34,900 1,700 Climbing New Center
Sun 08:58:40 AM 39.9564 -77.4194 273° West 400 460 38,000 1,045 Climbing Cleveland Center
Sun 08:59:40 AM 39.9622 -77.5575 273° West 388 447 38,000  Level Cleveland Center
Sun 09:00:40 AM 39.9658 -77.6956 272° West 383 441 38,000  Level Cleveland Center
Sun 09:01:40 AM 39.9714 -77.8361 273° West 383 441 38,000  Level Cleveland Center
Sun 09:02:40 AM 39.9747 -77.9714 272° West 383 441 38,000  Level Cleveland Center
Sun 09:03:40 AM 39.9797 -78.1067 273° West 383 441 38,000  Level Cleveland Center
Sun 09:04:40 AM 39.9828 -78.2422 272° West 383 441 38,000  Level Cleveland Center
Sun 09:05:40 AM 39.9789 -78.3722 268° West 378 435 38,000  Level Cleveland Center
Sun 09:06:40 AM 39.9836 -78.5075 273° West 378 435 38,000  Level Cleveland Center
Sun 09:07:40 AM 39.9861 -78.6403 271° West 378 435 38,000  Level Cleveland Center
Sun 09:08:40 AM 39.9881 -78.7731 271° West 373 429 38,000  Level Cleveland Center
Sun 09:09:40 AM 39.9922 -78.9083 272° West 373 429 38,000  Level Cleveland Center
Sun 09:10:40 AM 39.9983 -79.0411 273° West 367 422 38,000  Level Cleveland Center
Sun 09:11:40 AM 40.0022 -79.1739 272° West 367 422 38,000  Level Cleveland Center
Sun 09:12:40 AM 40.0036 -79.3039 271° West 362 417 38,000  Level Cleveland Center
Sun 09:13:40 AM 40.0050 -79.4367 271° West 362 417 38,000  Level Cleveland Center
Sun 09:14:40 AM 40.0064 -79.5667 271° West 362 417 38,000  Level Cleveland Center
Sun 09:15:40 AM 40.0094 -79.6994 272° West 362 417 38,000  Level Cleveland Center
Sun 09:16:40 AM 40.0106 -79.8294 271° West 362 417 38,000  Level Cleveland Center
Sun 09:17:40 AM 40.0114 -79.9733 270° West 362 417 38,000  Level Cleveland Center
Sun 09:18:40 AM 40.0142 -80.1061 272° West 362 417 38,000  Level Cleveland Center
Sun 09:19:40 AM 40.0167 -80.2361 271° West 362 417 38,000  Level Cleveland Center
Sun 09:20:40 AM 40.0169 -80.3689 270° West 362 417 38,000  Level Cleveland Center
Sun 09:21:40 AM 40.0172 -80.5017 270° West 362 417 38,000  Level Cleveland Center
Sun 09:22:40 AM 40.0172 -80.6372 270° West 362 417 38,000  Level Cleveland Center
Sun 09:23:40 AM 40.0192 -80.7700 271° West 368 423 38,000  Level Cleveland Center
Sun 09:24:40 AM 40.0189 -80.9056 270° West 368 423 38,000  Level Cleveland Center
Sun 09:25:22 AM 40.0147 -80.9850 266° West 372 428 38,000  Level Indianapolis Center
Sun 09:26:24 AM 40.0128 -81.1206 269° West 371 427 38,000  Level Indianapolis Center
Sun 09:27:25 AM 40.0106 -81.2569 269° West 371 427 38,000  Level Indianapolis Center
Sun 09:28:27 AM 40.0078 -81.3928 269° West 371 427 38,000  Level Indianapolis Center
Sun 09:29:29 AM 40.0050 -81.5522 269° West 374 430 38,000  Level Indianapolis Center
Sun 09:30:31 AM 40.0017 -81.6886 268° West 373 429 38,000  Level Indianapolis Center
Sun 09:31:32 AM 39.9989 -81.8183 268° West 375 432 38,000  Level Indianapolis Center
Sun 09:32:34 AM 39.9967 -81.9533 269° West 372 428 38,000  Level Indianapolis Center
Sun 09:33:36 AM 39.9928 -82.0889 268° West 371 427 38,000  Level Indianapolis Center
Sun 09:34:37 AM 39.9897 -82.2247 268° West 372 428 38,000  Level Indianapolis Center
Sun 09:35:39 AM 39.9867 -82.3622 268° West 375 432 38,000  Level Indianapolis Center
Sun 09:36:41 AM 39.9817 -82.5228 268° West 378 435 38,000  Level Indianapolis Center
Sun 09:37:43 AM 39.9781 -82.6608 268° West 378 435 38,000  Level Indianapolis Center
Sun 09:38:44 AM 39.9744 -82.8011 268° West 385 443 38,000  Level Indianapolis Center
Sun 09:39:46 AM 39.9692 -82.9436 267° West 389 448 38,000  Level Indianapolis Center
Sun 09:40:48 AM 39.9653 -83.0850 268° West 390 449 38,000  Level Indianapolis Center
Sun 09:41:49 AM 39.9631 -83.2281 269° West 393 452 38,000  Level Indianapolis Center
Sun 09:42:51 AM 39.9578 -83.3719 267° West 397 457 38,000  Level Indianapolis Center
Sun 09:43:53 AM 39.9522 -83.5375 268° West 398 458 38,000  Level Indianapolis Center
Sun 09:44:55 AM 39.9453 -83.6794 266° West 396 456 38,000  Level Indianapolis Center
Sun 09:45:56 AM 39.9406 -83.8228 268° West 395 455 38,000  Level Indianapolis Center
Sun 09:46:58 AM 39.9350 -83.9678 267° West 398 458 38,000  Level Indianapolis Center
Sun 09:48:00 AM 39.9286 -84.1147 267° West 403 464 38,000  Level Indianapolis Center
Sun 09:49:02 AM 39.9233 -84.2633 267° West 407 468 38,000  Level Indianapolis Center
Sun 09:50:03 AM 39.9164 -84.4142 267° West 412 474 38,000  Level Indianapolis Center
Sun 09:51:05 AM 39.9089 -84.5925 267° West 420 483 38,000  Level Indianapolis Center
Sun 09:52:07 AM 39.9011 -84.7453 266° West 420 483 38,000  Level Indianapolis Center
Sun 09:53:09 AM 39.8928 -84.9058 266° West 422 486 38,000  Level Indianapolis Center
Sun 09:54:11 AM 39.8867 -85.0586 267° West 424 488 38,000  Level Indianapolis Center
Sun 09:55:12 AM 39.8783 -85.2125 266° West 425 489 38,000  Level Indianapolis Center
Sun 09:56:14 AM 39.8694 -85.3656 266° West 426 490 38,000  Level Indianapolis Center
Sun 09:57:16 AM 39.8431 -85.5158 257° West 425 489 38,000  Level Indianapolis Center
Sun 09:58:18 AM 39.8189 -85.6642 258° West 422 486 38,000  Level Indianapolis Center
Sun 09:59:20 AM 39.7931 -85.8136 257° West 424 488 38,000  Level Indianapolis Center
Sun 10:00:21 AM 39.7628 -85.9922 258° West 423 487 38,000  Level Indianapolis Center
Sun 10:01:23 AM 39.7369 -86.1428 257° West 424 488 38,000  Level Indianapolis Center
Sun 10:02:25 AM 39.7106 -86.2969 258° West 426 490 38,000  Level Indianapolis Center
Sun 10:03:27 AM 39.6828 -86.4556 257° West 428 493 38,000 -145 Level Indianapolis Center
Sun 10:04:29 AM 39.6564 -86.6058 257° West 428 493 37,700 -581 Descending Indianapolis Center
Sun 10:05:31 AM 39.6286 -86.7608 257° West 439 505 36,800 -919 Descending Indianapolis Center
Sun 10:06:33 AM 39.6006 -86.9181 257° West 446 513 35,800 -927 Descending Indianapolis Center
Sun 10:07:34 AM 39.5714 -87.0786 257° West 458 527 34,900 -878 Descending Indianapolis Center
Sun 10:08:36 AM 39.5419 -87.2419 257° West 465 535 34,000 -435 Descending Indianapolis Center
Sun 10:09:38 AM 39.5125 -87.3994 256° West 453 521 34,000  Level Indianapolis Center
Sun 10:10:40 AM 39.4783 -87.5822 256° West 438 504 34,000  Level Indianapolis Center
Sun 10:11:42 AM 39.4506 -87.7347 257° West 437 503 34,000 -484 Level Indianapolis Center
Sun 10:12:44 AM 39.4214 -87.8875 256° West 438 504 33,000 -1,210 Descending Indianapolis Center
Sun 10:13:46 AM 39.3925 -88.0414 256° West 440 506 31,500 -1,161 Descending Indianapolis Center
Sun 10:14:48 AM 39.3567 -88.1908 253° West 448 516 30,600 -1,024 Descending Indianapolis Center
Sun 10:15:49 AM 39.3067 -88.3744 251° West 451 519 29,400 -1,026 Descending Indianapolis Center
Sun 10:16:45 AM 39.2731 -88.4967 250° West 445 512 28,600 -1,373 Descending Kansas Center
Sun 10:17:47 AM 39.2306 -88.6572 251° West 435 501 26,700 -1,935 Descending Kansas Center
Sun 10:18:49 AM 39.1928 -88.7969 251° West 421 484 24,600 -2,032 Descending Kansas Center
Sun 10:19:51 AM 39.1553 -88.9331 250° West 409 471 22,500 -2,129 Descending Kansas Center
Sun 10:20:53 AM 39.1164 -89.0794 251° West 392 451 20,200 -2,195 Descending Kansas Center
Sun 10:21:54 AM 39.0803 -89.2194 252° West 385 443 18,000 -2,098 Descending Kansas Center
Sun 10:22:56 AM 39.0519 -89.3478 254° West 375 432 15,900 -2,032 Descending Kansas Center
Sun 10:23:58 AM 39.0217 -89.4817 254° West 364 419 13,800 -1,935 Descending Kansas Center
Sun 10:25:00 AM 38.9911 -89.6019 252° West 356 410 11,900 -1,645 Descending Kansas Center
Sun 10:26:02 AM 38.9206 -89.6894 224° Southwest 350 403 10,400 -1,268 Descending Kansas Center
Sun 10:27:03 AM 38.8597 -89.7639 224° Southwest 330 380 9,300 -1,171 Descending Kansas Center
Sun 10:28:05 AM 38.8006 -89.8400 225° Southwest 309 356 8,000 -1,355 Descending Kansas Center
Sun 10:29:07 AM 38.7419 -89.9150 225° Southwest 301 346 6,500 -1,452 Descending Kansas Center
Sun 10:30:09 AM 38.6731 -90.0042 225° Southwest 296 341 5,000 -1,113 Descending Kansas Center
Sun 10:31:11 AM 38.6408 -90.0783 241° Southwest 275 316 4,200 -780 Descending Kansas Center
Sun 10:32:12 AM 38.6497 -90.1633 278° West 252 290 3,400 -732 Descending Kansas Center
Sun 10:33:14 AM 38.6789 -90.2178 304° West 207 238 2,700 -726 Descending Kansas Center
Sun 10:34:16 AM 38.7028 -90.2675 302° West 183 211 1,900 -726 Descending Kansas Center
Sun 10:35:18 AM 38.7231 -90.3078 303° West 154 177 1,200 -629 Descending Kansas Center
Sun 10:36:20 AM 38.7453 -90.3533 302° West 146 168 600 -581 Descending Kansas Center
Sun 10:38:00 AM 38.7333 -90.3667 169° South  Level FlightAware

Login

Don't have an account? Register now (free) for customized features, flight alerts, and more!